Harbor Beach, Michigan
Current Conditions -  °F | °C
As of 2:15 PM on Thursday 18 Dec 2014 (Local Time) from KBAX Reporting Station
Overcast Overcast  
Wind Chill: -8°   Ceiling: 1200
Heat Index: -3°   Visibility: 10mi
Dew Point: -5°   Wind: 9mph
Humidity: 89%   Direction: 310°NW
Pressure: 30.16"   Gusts: NA
Location:  43.84°N, 82.65°W
Report Text: KBAX 181915Z AUTO 31008KT 10SM OVC012 M03/M05 A3016 RMK AO2 T10321048
Loading
Personal Weather Stations






























Interactive Weather Map New forecast layout! Learn more

10-Day Weather Forecast

Advertisements
Track Severe Weather on mobile